Time;durP1;ratioP1;P1;durP2;ratioP2;P2;SDS_P1;SDS_P2;PMS_P1;PMS_P2;Temp;Humidity;BMP_temperature;BMP_pressure;BME280_temperature;BME280_humidity;BME280_pressure;Samples;Min_cycle;Max_cycle;Signal;HPM_P1;HPM_P2
2023/05/31 00:54:39;;;;;;;;;;;;;;;16.62;92.33;99469.50;4554085;27;19957;-96
2023/05/31 00:57:46;;;;;;;;;;;;;;;16.71;86.28;99469.16;4331559;28;33534;-96
2023/05/31 01:00:16;;;;;;;;;;;;;;;16.80;80.73;99468.00;4381729;28;34188;-96
2023/05/31 01:03:20;;;;;;;;;;;;;;;16.98;80.10;99469.19;4412307;27;34828;-96
2023/05/31 01:09:46;;;;;;;;;;;;;;;17.12;75.42;99466.06;4422285;27;32953;-96
2023/05/31 01:13:13;;;;;;;;;;;;;;;17.09;75.51;99461.78;4352401;27;33397;-96
2023/05/31 01:16:23;;;;;;;;;;;;;;;17.21;76.40;99461.34;4347786;27;36014;-96
2023/05/31 01:19:15;;;;;;;;;;;;;;;17.30;76.49;99454.88;4311224;33;34840;-95
2023/05/31 01:22:50;;;;;;;;;;;;;;;17.19;77.00;99457.91;4317340;33;34273;-96
2023/05/31 01:25:43;;;;;;;;;;;;;;;17.23;73.68;99456.88;4368458;27;34981;-96
2023/05/31 01:29:08;;;;;;;;;;;;;;;17.27;76.94;99452.34;4315740;33;36124;-96
2023/05/31 01:32:13;;;;;;;;;;;;;;;17.29;76.65;99454.94;4439132;27;34735;-96
2023/05/31 01:34:45;;;;;;;;;;;;;;;17.00;75.16;99454.22;4416511;27;32167;-96
2023/05/31 01:37:25;;;;;;;;;;;;;;;17.17;78.00;99457.09;4331572;28;33608;-96
2023/05/31 01:40:12;;;;;;;;;;;;;;;17.20;75.97;99461.38;4284471;33;35390;-96
2023/05/31 01:43:01;;;;;;;;;;;;;;;17.16;77.38;99455.38;4287072;33;34434;-96
2023/05/31 01:46:40;;;;;;;;;;;;;;;17.22;76.26;99454.28;4286716;33;33917;-96
2023/05/31 01:49:28;;;;;;;;;;;;;;;17.41;76.98;99462.38;4288980;33;33665;-96
2023/05/31 01:52:17;;;;;;;;;;;;;;;17.27;76.96;99454.13;4299614;33;35210;-96
2023/05/31 01:54:56;;;;;;;;;;;;;;;16.86;79.05;99450.28;4283883;33;33295;-96
2023/05/31 01:57:40;;;;;;;;;;;;;;;17.26;76.48;99458.53;4291929;28;32225;-96
2023/05/31 02:00:16;;;;;;;;;;;;;;;17.44;74.94;99457.00;4287685;33;33187;-96
2023/05/31 02:02:53;;;;;;;;;;;;;;;16.98;76.77;99458.66;4300933;33;36411;-96
2023/05/31 02:05:26;;;;;;;;;;;;;;;17.23;75.38;99456.88;4304493;33;34848;-96
2023/05/31 02:08:18;;;;;;;;;;;;;;;17.05;73.99;99461.03;4304181;33;32363;-96
2023/05/31 02:10:50;;;;;;;;;;;;;;;16.95;74.21;99462.25;4313219;33;34290;-96
2023/05/31 02:13:20;;;;;;;;;;;;;;;17.03;71.75;99462.00;4312268;33;35255;-96
2023/05/31 02:15:48;;;;;;;;;;;;;;;17.15;71.64;99466.81;4292086;33;33410;-96
2023/05/31 02:18:17;;;;;;;;;;;;;;;17.14;69.20;99459.00;4316539;33;32979;-96
2023/05/31 02:20:48;;;;;;;;;;;;;;;17.10;70.55;99465.25;4315487;33;34304;-96
2023/05/31 02:23:20;;;;;;;;;;;;;;;17.04;72.80;99468.97;4289633;33;35617;-96
2023/05/31 02:25:48;;;;;;;;;;;;;;;17.20;71.22;99467.50;4300207;33;33550;-96
2023/05/31 02:28:25;;;;;;;;;;;;;;;17.23;71.84;99467.41;4305807;33;32541;-96
2023/05/31 02:30:55;;;;;;;;;;;;;;;17.03;69.57;99473.38;4319581;27;35485;-96
2023/05/31 02:33:30;;;;;;;;;;;;;;;17.02;70.11;99470.78;4302426;33;33724;-96
2023/05/31 02:36:01;;;;;;;;;;;;;;;17.28;67.61;99472.50;4302792;33;34888;-96
2023/05/31 02:38:31;;;;;;;;;;;;;;;16.97;71.64;99464.84;4314726;33;32223;-96
2023/05/31 02:41:03;;;;;;;;;;;;;;;17.20;71.34;99467.50;4314517;33;34319;-96
2023/05/31 02:43:31;;;;;;;;;;;;;;;17.11;70.24;99472.25;4287007;33;33771;-96
2023/05/31 02:46:01;;;;;;;;;;;;;;;17.09;68.10;99467.03;4299437;33;33110;-96
2023/05/31 02:48:40;;;;;;;;;;;;;;;17.27;67.50;99465.50;4317999;33;33424;-96
2023/05/31 02:51:09;;;;;;;;;;;;;;;17.32;67.67;99473.25;4327573;33;34171;-96
2023/05/31 02:53:38;;;;;;;;;;;;;;;17.50;64.99;99482.25;4312709;33;35709;-96
2023/05/31 02:56:08;;;;;;;;;;;;;;;17.40;65.70;99479.06;4303530;33;33078;-96
2023/05/31 02:58:57;;;;;;;;;;;;;;;17.27;68.57;99483.94;4330981;27;33446;-96
2023/05/31 03:01:26;;;;;;;;;;;;;;;17.27;68.61;99483.09;4311922;28;35171;-96
2023/05/31 03:03:59;;;;;;;;;;;;;;;17.42;68.05;99479.91;4313261;33;34907;-96
2023/05/31 03:06:28;;;;;;;;;;;;;;;17.19;67.31;99484.22;4290621;33;34473;-96
2023/05/31 03:09:03;;;;;;;;;;;;;;;17.18;68.93;99486.91;4305712;33;31884;-96
2023/05/31 03:12:00;;;;;;;;;;;;;;;17.42;68.73;99483.37;4310277;28;34185;-96
2023/05/31 03:14:29;;;;;;;;;;;;;;;17.14;67.29;99491.41;4317547;33;36290;-96
2023/05/31 03:16:58;;;;;;;;;;;;;;;17.30;67.40;99497.00;4326417;33;34741;-96
2023/05/31 03:19:29;;;;;;;;;;;;;;;17.19;67.26;99486.84;4329019;33;33434;-96
2023/05/31 03:22:22;;;;;;;;;;;;;;;17.19;69.19;99489.47;4303279;33;32608;-96
2023/05/31 03:25:01;;;;;;;;;;;;;;;17.44;67.91;99491.22;4316014;33;36256;-96
2023/05/31 03:27:31;;;;;;;;;;;;;;;17.42;66.99;99495.69;4304088;33;34037;-96
2023/05/31 03:30:02;;;;;;;;;;;;;;;17.48;69.16;99498.09;4303765;33;34598;-96
2023/05/31 03:32:35;;;;;;;;;;;;;;;17.60;67.26;99502.91;4315484;33;33645;-96
2023/05/31 03:35:07;;;;;;;;;;;;;;;17.36;68.86;99511.69;4315882;33;35202;-96
2023/05/31 03:37:37;;;;;;;;;;;;;;;17.38;69.07;99504.59;4317681;33;34832;-96
2023/05/31 03:40:52;;;;;;;;;;;;;;;17.43;70.57;99498.25;4319161;33;31936;-96
2023/05/31 03:43:30;;;;;;;;;;;;;;;17.34;71.11;99503.84;4327051;27;35228;-96
2023/05/31 03:46:19;;;;;;;;;;;;;;;17.13;70.90;99502.84;4314789;33;33892;-96
2023/05/31 03:48:48;;;;;;;;;;;;;;;17.37;70.66;99503.75;4303867;33;35251;-94
2023/05/31 03:51:17;;;;;;;;;;;;;;;17.19;70.37;99502.62;4301810;33;32699;-96
2023/05/31 03:54:11;;;;;;;;;;;;;;;17.31;70.29;99505.72;4317613;33;34389;-96
2023/05/31 03:56:54;;;;;;;;;;;;;;;17.32;69.33;99510.94;4295134;33;33634;-96
2023/05/31 03:59:26;;;;;;;;;;;;;;;17.50;68.66;99519.09;4319200;33;35593;-96
2023/05/31 04:01:56;;;;;;;;;;;;;;;17.31;70.56;99519.78;4318622;33;33472;-96
2023/05/31 04:04:25;;;;;;;;;;;;;;;17.34;69.32;99518.78;4307024;33;33906;-96
2023/05/31 04:06:55;;;;;;;;;;;;;;;17.25;69.85;99512.94;4315617;33;35125;-96
2023/05/31 04:09:24;;;;;;;;;;;;;;;17.36;69.18;99516.97;4313623;33;34811;-96
2023/05/31 04:11:56;;;;;;;;;;;;;;;17.65;67.61;99523.81;4314089;33;33626;-96
2023/05/31 04:14:31;;;;;;;;;;;;;;;17.34;68.89;99518.78;4307667;28;33504;-96
2023/05/31 04:17:03;;;;;;;;;;;;;;;17.19;70.37;99526.31;4305944;33;34005;-95
2023/05/31 04:19:34;;;;;;;;;;;;;;;17.32;67.27;99531.16;4305033;33;33194;-96
2023/05/31 04:22:04;;;;;;;;;;;;;;;17.41;66.54;99528.19;4303323;33;33199;-96
2023/05/31 04:24:32;;;;;;;;;;;;;;;17.43;65.49;99529.00;4311479;33;34155;-96
2023/05/31 04:27:02;;;;;;;;;;;;;;;17.38;66.54;99526.53;4315839;33;35217;-96
2023/05/31 04:29:33;;;;;;;;;;;;;;;17.53;67.11;99535.66;4318277;33;34451;-96
2023/05/31 04:32:23;;;;;;;;;;;;;;;17.58;66.03;99532.84;4323737;27;33476;-96
2023/05/31 04:35:18;;;;;;;;;;;;;;;17.86;65.62;99532.72;4309620;28;35343;-96
2023/05/31 04:37:52;;;;;;;;;;;;;;;17.79;66.50;99533.84;4302348;28;35394;-96
2023/05/31 04:40:22;;;;;;;;;;;;;;;17.63;67.70;99538.81;4316329;33;34868;-96
2023/05/31 04:42:53;;;;;;;;;;;;;;;18.03;64.21;99539.97;4309458;33;33805;-94
2023/05/31 04:45:33;;;;;;;;;;;;;;;17.90;63.50;99544.84;4327136;33;35514;-96
2023/05/31 04:48:06;;;;;;;;;;;;;;;18.53;61.13;99536.25;4323206;33;35562;-95
2023/05/31 04:50:40;;;;;;;;;;;;;;;18.47;64.03;99539.16;4327698;27;34588;-94
2023/05/31 04:53:08;;;;;;;;;;;;;;;18.52;62.82;99538.06;4310176;33;33360;-93
2023/05/31 04:55:40;;;;;;;;;;;;;;;18.63;63.85;99545.53;4317609;27;34815;-95
2023/05/31 04:58:19;;;;;;;;;;;;;;;18.71;65.07;99556.63;4327225;33;35321;-96
2023/05/31 05:00:49;;;;;;;;;;;;;;;19.02;62.71;99546.63;4341167;33;34739;-96
2023/05/31 05:03:20;;;;;;;;;;;;;;;18.83;62.12;99551.78;4340579;33;33509;-93
2023/05/31 05:05:53;;;;;;;;;;;;;;;19.00;62.73;99549.31;4339087;33;34083;-95
2023/05/31 05:08:22;;;;;;;;;;;;;;;18.84;63.64;99548.25;4311108;33;35722;-94
2023/05/31 05:10:51;;;;;;;;;;;;;;;18.58;63.06;99547.50;4308699;33;33408;-95
2023/05/31 05:13:22;;;;;;;;;;;;;;;18.56;61.91;99555.50;4328041;33;32974;-96
2023/05/31 05:16:05;;;;;;;;;;;;;;;19.21;62.89;99547.53;4298643;28;33465;-96
2023/05/31 05:18:40;;;;;;;;;;;;;;;19.44;64.34;99553.63;4297483;33;35435;-94
2023/05/31 05:21:08;;;;;;;;;;;;;;;19.63;61.88;99558.94;4307776;33;34815;-93
2023/05/31 05:23:37;;;;;;;;;;;;;;;19.39;63.37;99556.44;4326182;33;32686;-96
2023/05/31 05:26:05;;;;;;;;;;;;;;;19.39;57.95;99551.16;4323899;33;34136;-95
2023/05/31 05:28:36;;;;;;;;;;;;;;;19.30;61.88;99548.94;4311304;33;33856;-95
2023/05/31 05:31:07;;;;;;;;;;;;;;;19.35;61.22;99546.94;4311654;33;34743;-94
2023/05/31 05:33:36;;;;;;;;;;;;;;;19.40;59.45;99552.91;4335758;33;33297;-95
2023/05/31 05:36:05;;;;;;;;;;;;;;;19.64;61.33;99552.72;4309775;33;34150;-96
2023/05/31 05:38:34;;;;;;;;;;;;;;;19.70;62.45;99555.09;4334316;33;35278;-95
2023/05/31 05:41:02;;;;;;;;;;;;;;;19.84;60.90;99551.87;4310593;33;34712;-93
2023/05/31 05:43:31;;;;;;;;;;;;;;;19.69;61.56;99556.03;4333743;33;33337;-96
2023/05/31 05:46:00;;;;;;;;;;;;;;;19.62;60.34;99557.22;4322192;33;34905;-95
2023/05/31 05:48:28;;;;;;;;;;;;;;;20.04;60.14;99557.09;4334511;33;35327;-95
2023/05/31 05:50:56;;;;;;;;;;;;;;;19.95;61.01;99552.22;4336520;33;35407;-96
2023/05/31 05:53:27;;;;;;;;;;;;;;;19.99;60.42;99556.44;4311142;33;32974;-96
2023/05/31 05:55:55;;;;;;;;;;;;;;;20.22;61.99;99557.16;4312027;33;33139;-96
2023/05/31 05:58:24;;;;;;;;;;;;;;;20.43;61.28;99552.63;4323524;33;35271;-96
2023/05/31 06:00:55;;;;;;;;;;;;;;;20.65;60.55;99560.44;4299767;33;33462;-96
2023/05/31 06:03:26;;;;;;;;;;;;;;;21.06;58.29;99564.63;4312411;33;32981;-96
2023/05/31 06:06:01;;;;;;;;;;;;;;;21.14;56.50;99567.72;4309628;33;33028;-96
2023/05/31 06:08:30;;;;;;;;;;;;;;;20.85;57.73;99572.69;4310131;33;36068;-95
2023/05/31 06:10:57;;;;;;;;;;;;;;;21.26;58.80;99576.84;4310656;33;33424;-96
2023/05/31 06:13:25;;;;;;;;;;;;;;;21.60;57.87;99570.69;4322812;33;33692;-95
2023/05/31 06:15:55;;;;;;;;;;;;;;;21.87;53.65;99559.56;4316874;33;32983;-96
2023/05/31 06:18:35;;;;;;;;;;;;;;;22.13;55.60;99569.59;4305729;28;35685;-95
2023/05/31 06:21:14;;;;;;;;;;;;;;;21.84;51.69;99567.66;4310581;33;34873;-96
2023/05/31 06:23:43;;;;;;;;;;;;;;;21.78;52.60;99569.69;4300711;33;31728;-95
2023/05/31 06:26:11;;;;;;;;;;;;;;;21.71;54.24;99567.47;4315437;33;33277;-96
2023/05/31 06:28:43;;;;;;;;;;;;;;;21.57;53.99;99568.19;4299080;33;33842;-96
2023/05/31 06:31:19;;;;;;;;;;;;;;;21.49;55.08;99570.38;4316108;33;34799;-96
2023/05/31 06:33:48;;;;;;;;;;;;;;;21.83;51.30;99565.94;4329626;27;33194;-96
2023/05/31 06:36:56;;;;;;;;;;;;;;;21.83;51.16;99580.06;4324533;27;34250;-96
2023/05/31 06:39:38;;;;;;;;;;;;;;;22.20;51.43;99574.56;4300252;28;35271;-96
2023/05/31 06:42:15;;;;;;;;;;;;;;;22.24;53.71;99573.47;4277122;33;33258;-96
2023/05/31 06:44:50;;;;;;;;;;;;;;;22.78;54.42;99568.63;4285461;33;33902;-96
2023/05/31 06:47:40;;;;;;;;;;;;;;;23.03;51.59;99576.06;4285056;33;35746;-96
2023/05/31 06:50:17;;;;;;;;;;;;;;;23.78;49.56;99572.50;4285929;33;35230;-94
2023/05/31 06:52:58;;;;;;;;;;;;;;;23.59;49.57;99563.00;4296476;33;34641;-96
2023/05/31 06:55:26;;;;;;;;;;;;;;;22.97;51.09;99571.09;4316489;27;34109;-94
2023/05/31 06:58:00;;;;;;;;;;;;;;;23.12;51.28;99574.69;4317841;27;34812;-96
2023/05/31 07:00:32;;;;;;;;;;;;;;;24.08;49.50;99571.59;4332311;27;34023;-96
2023/05/31 07:03:26;;;;;;;;;;;;;;;25.58;43.95;99581.31;4317486;33;37018;-96
2023/05/31 07:05:55;;;;;;;;;;;;;;;24.50;46.02;99583.09;4315097;33;33042;-96
2023/05/31 07:08:30;;;;;;;;;;;;;;;24.27;48.64;99579.25;4343898;27;34342;31
2023/05/31 07:11:22;;;;;;;;;;;;;;;25.13;44.93;99590.50;4296302;33;35891;-96
2023/05/31 07:14:16;;;;;;;;;;;;;;;25.44;44.16;99599.09;4309136;28;33453;-96
2023/05/31 07:17:05;;;;;;;;;;;;;;;26.13;42.23;99596.13;4319958;27;33128;-96
2023/05/31 07:20:29;;;;;;;;;;;;;;;26.01;40.03;99591.66;4299315;33;35137;-96
2023/05/31 07:23:41;;;;;;;;;;;;;;;26.48;41.60;99590.91;4296313;33;33982;-96
2023/05/31 07:26:11;;;;;;;;;;;;;;;28.05;35.65;99586.22;4304924;33;35770;-96
2023/05/31 07:29:18;;;;;;;;;;;;;;;27.32;39.48;99599.00;4423048;27;32105;31
2023/05/31 07:31:48;;;;;;;;;;;;;;;27.48;38.26;99590.66;4300781;33;32775;-96
2023/05/31 07:34:20;;;;;;;;;;;;;;;27.80;32.56;99598.00;4314915;28;35670;-96
2023/05/31 07:37:33;;;;;;;;;;;;;;;27.43;37.26;99593.69;4326388;27;34453;31
2023/05/31 07:40:06;;;;;;;;;;;;;;;27.60;35.60;99604.87;4387674;27;33060;-96
2023/05/31 07:43:01;;;;;;;;;;;;;;;27.97;35.92;99596.69;4319478;33;33129;-96
2023/05/31 07:45:46;;;;;;;;;;;;;;;28.13;37.30;99597.19;4616027;27;35464;-96
2023/05/31 07:48:33;;;;;;;;;;;;;;;26.99;39.16;99594.38;4324222;27;35129;-96
2023/05/31 07:51:29;;;;;;;;;;;;;;;28.34;36.19;99597.28;4421949;27;33778;-95
2023/05/31 07:54:10;;;;;;;;;;;;;;;28.82;34.82;99597.91;4336784;27;34747;-96
2023/05/31 07:56:40;;;;;;;;;;;;;;;27.64;36.08;99594.81;4308856;33;34169;-96
2023/05/31 07:59:31;;;;;;;;;;;;;;;28.45;34.66;99596.41;4320863;33;35654;-96
2023/05/31 08:03:22;;;;;;;;;;;;;;;27.95;37.33;99599.47;4542007;27;36185;-96
2023/05/31 08:06:01;;;;;;;;;;;;;;;27.52;37.66;99599.31;4303053;33;34509;-96
2023/05/31 08:08:56;;;;;;;;;;;;;;;27.35;36.92;99596.09;4387253;27;34281;31
2023/05/31 08:11:55;;;;;;;;;;;;;;;27.86;36.19;99596.66;4559538;28;36278;-94
2023/05/31 08:18:08;;;;;;;;;;;;;;;28.25;38.09;99589.13;4368471;27;35775;-96
2023/05/31 08:21:39;;;;;;;;;;;;;;;27.53;35.88;99599.19;4362391;27;36185;-96
2023/05/31 08:24:19;;;;;;;;;;;;;;;28.70;35.16;99583.72;4298051;28;35871;-96
2023/05/31 08:33:55;;;;;;;;;;;;;;;27.90;37.30;99590.09;4366320;27;20020;31
2023/05/31 08:40:29;;;;;;;;;;;;;;;29.61;31.35;99597.56;4672850;27;21680;-96
2023/05/31 08:44:17;;;;;;;;;;;;;;;29.46;30.87;99592.53;4490984;28;34849;-96
2023/05/31 08:47:19;;;;;;;;;;;;;;;28.65;35.33;99594.81;4522099;28;35433;31
2023/05/31 08:53:51;;;;;;;;;;;;;;;30.05;31.30;99593.72;4306814;28;19996;-96
2023/05/31 08:56:35;;;;;;;;;;;;;;;29.44;33.73;99593.66;4376409;28;34245;-96
2023/05/31 08:59:48;;;;;;;;;;;;;;;29.46;33.74;99592.53;4314153;33;35318;-96
2023/05/31 09:02:24;;;;;;;;;;;;;;;29.42;32.70;99595.59;4428681;27;34445;-96
2023/05/31 09:05:55;;;;;;;;;;;;;;;29.67;31.64;99600.56;4305225;33;33488;-96
2023/05/31 09:08:39;;;;;;;;;;;;;;;29.81;31.09;99596.72;4313360;27;32814;-96
2023/05/31 09:12:01;;;;;;;;;;;;;;;29.11;33.63;99592.81;4292004;33;35224;-96
2023/05/31 09:14:59;;;;;;;;;;;;;;;28.73;36.26;99584.31;4355027;27;33695;-96
2023/05/31 09:17:34;;;;;;;;;;;;;;;30.12;32.58;99587.81;4332286;27;32153;-96
2023/05/31 09:20:43;;;;;;;;;;;;;;;30.42;30.55;99587.78;4376148;27;33112;-95
2023/05/31 09:23:30;;;;;;;;;;;;;;;28.47;36.46;99583.75;4306576;27;33967;-96
2023/05/31 09:26:05;;;;;;;;;;;;;;;27.96;37.48;99589.66;4304339;27;34029;-96
2023/05/31 09:29:11;;;;;;;;;;;;;;;28.76;35.71;99582.37;4297915;28;32529;-96
2023/05/31 09:32:15;;;;;;;;;;;;;;;29.99;32.04;99583.50;4302423;33;32982;-95
2023/05/31 09:35:12;;;;;;;;;;;;;;;30.09;33.01;99582.69;4310207;33;36114;-96
2023/05/31 09:41:37;;;;;;;;;;;;;;;29.43;33.56;99586.59;4394036;27;20020;-96
2023/05/31 09:45:06;;;;;;;;;;;;;;;29.39;32.17;99586.00;4307259;33;34121;-96
2023/05/31 09:48:23;;;;;;;;;;;;;;;30.79;31.13;99581.75;4316184;27;36166;-96
2023/05/31 09:50:59;;;;;;;;;;;;;;;30.80;30.28;99583.44;4302140;33;34636;-95
2023/05/31 09:53:37;;;;;;;;;;;;;;;30.75;29.35;99569.59;4288861;33;32508;-96
2023/05/31 09:56:27;;;;;;;;;;;;;;;30.57;33.58;99588.25;4302802;33;35235;-96
2023/05/31 09:58:56;;;;;;;;;;;;;;;30.91;31.30;99576.25;4292173;28;34911;-96
2023/05/31 10:01:30;;;;;;;;;;;;;;;30.73;32.66;99570.72;4290142;33;34133;-96
2023/05/31 10:04:03;;;;;;;;;;;;;;;30.56;31.54;99574.94;4313618;27;33373;-96
2023/05/31 10:06:36;;;;;;;;;;;;;;;31.04;30.49;99571.44;4293046;33;35332;-96
2023/05/31 10:09:09;;;;;;;;;;;;;;;30.72;32.49;99569.00;4292962;33;33700;-95
2023/05/31 10:11:58;;;;;;;;;;;;;;;31.15;31.25;99568.63;4353872;27;32989;-96
2023/05/31 10:14:39;;;;;;;;;;;;;;;31.48;30.57;99557.50;4302409;33;33721;-96
2023/05/31 10:17:12;;;;;;;;;;;;;;;30.13;33.51;99568.88;4322358;27;34240;-96
2023/05/31 10:20:25;;;;;;;;;;;;;;;31.49;28.31;99567.31;4293569;33;35059;-96
2023/05/31 10:23:27;;;;;;;;;;;;;;;30.22;34.47;99561.81;4302205;33;35370;-96
2023/05/31 10:26:09;;;;;;;;;;;;;;;31.16;31.81;99562.22;4302766;27;33766;-96
2023/05/31 10:29:05;;;;;;;;;;;;;;;31.92;30.52;99573.97;4288552;33;34220;-96
2023/05/31 10:32:12;;;;;;;;;;;;;;;31.81;27.90;99564.22;4364849;27;36046;-95
2023/05/31 10:39:32;;;;;;;;;;;;;;;31.97;28.59;99552.00;4316086;33;34776;-96
2023/05/31 10:42:42;;;;;;;;;;;;;;;30.21;34.08;99549.38;4326200;33;34419;-96
2023/05/31 10:45:12;;;;;;;;;;;;;;;30.71;34.00;99552.03;4315667;33;34903;-95
2023/05/31 10:47:53;;;;;;;;;;;;;;;31.79;31.26;99551.94;4342344;33;34713;-95
2023/05/31 10:50:26;;;;;;;;;;;;;;;32.64;30.29;99553.47;4310754;33;33232;-96
2023/05/31 10:53:12;;;;;;;;;;;;;;;31.11;31.30;99552.91;4317830;33;34138;-96
2023/05/31 10:55:46;;;;;;;;;;;;;;;31.01;32.68;99547.53;4319923;33;33708;-94
2023/05/31 10:58:27;;;;;;;;;;;;;;;32.26;30.78;99550.03;4341515;33;34762;-96
2023/05/31 11:01:14;;;;;;;;;;;;;;;31.61;29.84;99543.75;4328346;33;31825;-96
2023/05/31 11:03:52;;;;;;;;;;;;;;;31.51;29.62;99543.78;4306630;33;32734;-94
2023/05/31 11:06:27;;;;;;;;;;;;;;;31.69;32.80;99538.50;4332028;33;35291;-96
2023/05/31 11:09:31;;;;;;;;;;;;;;;31.11;29.67;99542.97;4330576;33;34473;-95
2023/05/31 11:12:12;;;;;;;;;;;;;;;31.34;28.96;99540.84;4332906;33;33116;-95
2023/05/31 11:15:09;;;;;;;;;;;;;;;30.20;31.75;99536.94;4328419;27;33565;-96
2023/05/31 11:17:53;;;;;;;;;;;;;;;29.64;32.90;99539.09;4300379;33;35426;-95
2023/05/31 11:20:25;;;;;;;;;;;;;;;29.88;32.07;99543.34;4300125;33;35633;-96
2023/05/31 11:23:12;;;;;;;;;;;;;;;27.23;37.49;99531.03;4286777;33;33002;-95
2023/05/31 11:25:41;;;;;;;;;;;;;;;28.04;37.51;99528.31;4312221;33;34183;-96
2023/05/31 11:28:13;;;;;;;;;;;;;;;29.32;35.20;99522.28;4302266;33;34048;-95
2023/05/31 11:31:03;;;;;;;;;;;;;;;29.03;34.19;99522.88;4317083;33;34913;-96
2023/05/31 11:33:45;;;;;;;;;;;;;;;30.18;33.58;99517.44;4318738;33;34266;-96
2023/05/31 11:36:34;;;;;;;;;;;;;;;29.82;33.52;99522.41;4302238;27;35141;-95
2023/05/31 11:39:05;;;;;;;;;;;;;;;28.72;39.11;99514.78;4282189;33;34665;-95
2023/05/31 11:41:36;;;;;;;;;;;;;;;28.20;38.97;99517.19;4306858;27;34913;-95
2023/05/31 11:44:51;;;;;;;;;;;;;;;28.71;36.99;99511.25;4299258;27;32858;-94
2023/05/31 11:47:29;;;;;;;;;;;;;;;27.63;37.24;99511.03;4313712;27;34474;-96
2023/05/31 11:50:03;;;;;;;;;;;;;;;27.17;36.30;99512.75;4303255;33;34837;-96
2023/05/31 11:52:36;;;;;;;;;;;;;;;27.93;34.95;99510.44;4307032;27;35353;-95
2023/05/31 11:56:12;;;;;;;;;;;;;;;26.98;36.86;99517.81;4317346;27;33769;-96
2023/05/31 12:00:11;;;;;;;;;;;;;;;27.18;36.21;99510.97;4283868;27;34391;-96
2023/05/31 12:03:30;;;;;;;;;;;;;;;27.72;35.64;99507.63;4308024;27;35548;-96
2023/05/31 12:07:35;;;;;;;;;;;;;;;28.68;35.37;99510.66;4309124;27;36266;-94
2023/05/31 12:11:29;;;;;;;;;;;;;;;29.51;36.02;99506.28;4307728;27;33677;-96
2023/05/31 12:15:37;;;;;;;;;;;;;;;29.42;34.65;99501.69;4286484;33;34673;-95
2023/05/31 12:18:52;;;;;;;;;;;;;;;28.39;36.95;99505.84;4295037;28;35398;-93
2023/05/31 12:21:32;;;;;;;;;;;;;;;27.53;36.20;99502.91;4283964;27;34610;-96
2023/05/31 12:24:50;;;;;;;;;;;;;;;27.08;35.43;99496.59;4288110;33;33645;-96
2023/05/31 12:27:41;;;;;;;;;;;;;;;26.79;36.26;99496.97;4318056;27;34184;-96
2023/05/31 12:30:20;;;;;;;;;;;;;;;26.86;37.76;99495.56;4294471;33;35276;-91
2023/05/31 12:32:57;;;;;;;;;;;;;;;27.32;37.96;99489.38;4306468;33;35576;-95
2023/05/31 12:35:26;;;;;;;;;;;;;;;27.96;37.61;99487.94;4292678;33;33059;-92
2023/05/31 12:37:54;;;;;;;;;;;;;;;27.55;34.88;99484.06;4291265;33;34220;-93
2023/05/31 12:40:22;;;;;;;;;;;;;;;27.04;35.49;99482.63;4276063;33;35159;-88
2023/05/31 12:42:59;;;;;;;;;;;;;;;26.61;36.72;99483.16;4286256;27;36240;-89
2023/05/31 12:45:27;;;;;;;;;;;;;;;27.35;35.69;99478.44;4277810;33;34162;-88
2023/05/31 12:47:56;;;;;;;;;;;;;;;27.32;36.19;99485.84;4261367;33;33848;-87
2023/05/31 12:50:28;;;;;;;;;;;;;;;27.66;36.03;99481.38;4284680;33;35146;-87
2023/05/31 12:52:56;;;;;;;;;;;;;;;27.20;35.90;99484.97;4285662;33;34631;-95
2023/05/31 12:55:26;;;;;;;;;;;;;;;27.56;35.78;99475.03;4275174;33;33700;-93
2023/05/31 12:57:54;;;;;;;;;;;;;;;27.68;34.60;99476.72;4261278;33;34613;-91
2023/05/31 13:00:22;;;;;;;;;;;;;;;28.08;33.82;99470.88;4263445;33;33613;-89
2023/05/31 13:02:51;;;;;;;;;;;;;;;27.73;35.93;99469.19;4289660;33;34657;-89
2023/05/31 13:05:19;;;;;;;;;;;;;;;28.44;33.35;99470.66;4290120;33;33276;-90
2023/05/31 13:07:47;;;;;;;;;;;;;;;28.35;34.26;99466.91;4277108;33;34309;-89
2023/05/31 13:10:15;;;;;;;;;;;;;;;29.06;31.76;99466.34;4276964;33;34357;-90
2023/05/31 13:12:43;;;;;;;;;;;;;;;28.91;30.64;99463.16;4285867;33;34981;-93
2023/05/31 13:18:17;;;;;;;;;;;;;;;28.42;31.27;99449.34;4296054;33;20284;-91
2023/05/31 13:20:52;;;;;;;;;;;;;;;29.12;31.62;99447.06;4644016;27;34963;-91
2023/05/31 13:23:21;;;;;;;;;;;;;;;28.95;31.77;99448.50;4766413;27;32638;-92
2023/05/31 13:29:23;;;;;;;;;;;;;;;28.36;31.72;99442.69;4835738;27;19961;-96
2023/05/31 13:32:01;;;;;;;;;;;;;;;27.91;33.32;99436.59;4738053;27;33767;-96
2023/05/31 13:34:31;;;;;;;;;;;;;;;29.38;30.06;99434.06;4875013;27;34278;-96
2023/05/31 13:37:02;;;;;;;;;;;;;;;30.17;28.56;99425.25;4300418;33;33868;-95
2023/05/31 13:39:32;;;;;;;;;;;;;;;29.69;32.96;99434.88;4302102;33;34824;-91
2023/05/31 13:42:01;;;;;;;;;;;;;;;30.03;28.58;99423.81;4296294;33;36001;-93
2023/05/31 13:44:29;;;;;;;;;;;;;;;29.43;32.83;99428.31;4302890;33;34748;-90
2023/05/31 13:46:56;;;;;;;;;;;;;;;28.57;32.67;99427.63;4303397;33;33466;-89
2023/05/31 13:49:25;;;;;;;;;;;;;;;29.39;29.44;99424.19;4296414;33;35740;-89
2023/05/31 13:51:53;;;;;;;;;;;;;;;29.09;28.37;99425.84;4309427;33;34918;-89
2023/05/31 13:54:20;;;;;;;;;;;;;;;28.82;30.77;99423.72;4294131;33;34714;-95
2023/05/31 13:56:48;;;;;;;;;;;;;;;27.75;32.00;99419.06;4279058;33;33351;-89
2023/05/31 13:59:17;;;;;;;;;;;;;;;28.16;33.92;99420.22;4283900;33;33828;-95
2023/05/31 14:01:46;;;;;;;;;;;;;;;28.01;34.83;99418.81;4303490;33;35603;-94
2023/05/31 14:04:15;;;;;;;;;;;;;;;27.58;32.82;99417.78;4292047;33;35053;-96
2023/05/31 14:06:52;;;;;;;;;;;;;;;27.05;33.10;99417.50;4264745;33;934260;-96
2023/05/31 14:10:23;;;;;;;;;;;;;;;27.58;35.34;99408.88;4300946;33;34173;-96
2023/05/31 14:12:59;;;;;;;;;;;;;;;28.79;29.82;99405.22;4295226;33;35296;-89
2023/05/31 14:15:33;;;;;;;;;;;;;;;28.13;36.22;99404.44;4284762;33;34695;-88
2023/05/31 14:18:03;;;;;;;;;;;;;;;28.11;33.25;99400.16;4299068;33;33613;-95
2023/05/31 14:20:32;;;;;;;;;;;;;;;27.59;34.13;99408.75;4300981;33;34187;-88
2023/05/31 14:23:40;;;;;;;;;;;;;;;27.41;31.68;99405.75;4319516;27;35053;-96
2023/05/31 14:26:23;;;;;;;;;;;;;;;27.53;32.60;99403.06;4315526;27;35330;-92
2023/05/31 14:28:50;;;;;;;;;;;;;;;27.28;32.63;99397.00;4308542;33;32507;-92
2023/05/31 14:31:19;;;;;;;;;;;;;;;27.34;35.13;99401.88;4304818;33;34142;-94
2023/05/31 14:33:47;;;;;;;;;;;;;;;27.69;31.84;99395.50;4306319;33;36105;-91
2023/05/31 14:36:16;;;;;;;;;;;;;;;27.41;33.84;99397.72;4334358;33;34039;-90
2023/05/31 14:38:44;;;;;;;;;;;;;;;27.20;35.86;99399.41;4334222;33;33776;-92
2023/05/31 14:41:12;;;;;;;;;;;;;;;27.51;33.70;99396.97;4333129;33;33923;-91
2023/05/31 14:43:40;;;;;;;;;;;;;;;27.47;36.19;99400.88;4320991;33;36090;-92
2023/05/31 14:46:09;;;;;;;;;;;;;;;27.09;33.12;99394.03;4313784;33;34746;-87
2023/05/31 14:48:39;;;;;;;;;;;;;;;27.20;33.80;99394.06;4293790;33;33409;-89
2023/05/31 14:51:09;;;;;;;;;;;;;;;27.37;34.52;99392.75;4304475;33;34893;-88
2023/05/31 14:53:37;;;;;;;;;;;;;;;27.74;35.15;99396.00;4302976;33;35307;-90
2023/05/31 14:56:05;;;;;;;;;;;;;;;27.42;35.54;99390.53;4303762;33;35485;-90
2023/05/31 14:58:47;;;;;;;;;;;;;;;27.05;34.66;99390.75;4312701;33;31747;-92
2023/05/31 15:01:22;;;;;;;;;;;;;;;27.08;35.44;99393.19;4321968;33;35113;-90
2023/05/31 15:03:54;;;;;;;;;;;;;;;27.24;34.94;99398.19;4312952;33;35292;-90
2023/05/31 15:06:27;;;;;;;;;;;;;;;27.37;35.06;99388.25;4316925;33;35192;-90
2023/05/31 15:08:55;;;;;;;;;;;;;;;27.26;33.84;99390.87;4314780;33;33745;-91
2023/05/31 15:11:22;;;;;;;;;;;;;;;27.50;35.83;99395.31;4310799;33;34204;-95
2023/05/31 15:13:51;;;;;;;;;;;;;;;27.25;33.89;99394.56;4312545;33;33885;-96
2023/05/31 15:16:21;;;;;;;;;;;;;;;27.32;33.36;99387.78;4309020;33;34454;-96
2023/05/31 15:18:50;;;;;;;;;;;;;;;27.13;34.24;99384.84;4309700;33;34730;-96
2023/05/31 15:21:22;;;;;;;;;;;;;;;27.08;34.07;99390.53;4320093;33;34386;-96
2023/05/31 15:24:11;;;;;;;;;;;;;;;27.41;37.72;99397.72;4333495;33;36465;-96
2023/05/31 15:27:06;;;;;;;;;;;;;;;27.21;33.72;99391.28;4391804;27;35080;-96
2023/05/31 15:29:38;;;;;;;;;;;;;;;26.78;33.86;99393.78;4343363;32;34208;-96
2023/05/31 15:32:13;;;;;;;;;;;;;;;26.85;36.83;99393.16;4319081;33;35060;-96